Concordia, Missouri
Current Conditions -  °F | °C
As of 12:58 PM on Sunday 23 Nov 2014 (Local Time) from KSZL Reporting Station
Drizzle Drizzle  
Wind Chill: 13°   Ceiling: 500
Heat Index: 13°   Visibility: 4mi
Dew Point: 12°   Wind: 3mph
Humidity: 94%   Direction: 170°S
Pressure: 29.38"   Gusts: NA
Location:  38.98°N, 93.57°W
Report Text: KSZL 231858Z AUTO 17003KT 4SM DZ BR OVC005 13/12 A2938 RMK AO2 VIS 2 1/2 RWY01 DZB1846 CIG 005V007 OVC V BKN SLP951 P0000 T01300121 $
Loading
Personal Weather Stations






























Interactive Weather Map New forecast layout! Learn more

10-Day Weather Forecast

Advertisements
Track Severe Weather on mobile